Flight Track Log - Related Links

Times and Time Zones

All times are in EDT time to prevent confusion due to time zone crossing. See the UAL1206 flight status page for this flight to view local times or setup timezone preferences in your user account.

Time Position Orientation Groundspeed Altitude Reporting Facility
EDT Latitude Longitude Course Direction KTS MPH feet Rate Location/Type
Tue 12:53:00 PM 28.7432 -81.3400 354° North  Level FlightAware Approximate
Tue 12:54:00 PM 28.8539 -81.3521 355° North  Level FlightAware Approximate
Tue 12:55:00 PM 28.9647 -81.3631 355° North  Level FlightAware Approximate
Tue 12:56:00 PM 29.0747 -81.3816 350° North  Level FlightAware Approximate
Tue 12:56:17 PM 28.3830 -81.4430 350° North 292 336 8,100  Level FlightAware ADS-B
Tue 12:56:42 PM 28.4150 -81.4190 33° Northeast 294 338 9,300 2,954 Climbing FlightAware ADS-B
Tue 12:57:22 PM 28.4730 -81.3810 30° Northeast 317 365 11,300 2,400 Climbing FlightAware ADS-B
Tue 12:58:07 PM 28.5310 -81.3440 29° Northeast 345 397 12,700 2,100 Climbing FlightAware ADS-B
Tue 12:58:22 PM 28.5580 -81.3380 11° North 349 402 13,400 2,550 Climbing FlightAware ADS-B
Tue 12:58:47 PM 28.5950 -81.3400 357° North 352 405 14,400 2,123 Climbing FlightAware ADS-B
Tue 12:59:27 PM 28.6550 -81.3450 356° North 366 421 15,700 2,400 Climbing FlightAware ADS-B
Tue 12:59:57 PM 28.7190 -81.3210 18° North 371 427 17,200 2,914 Climbing FlightAware ADS-B
Tue 01:00:37 PM 28.7880 -81.2530 41° Northeast 375 432 19,100 1,694 Climbing FlightAware ADS-B
Tue 01:01:22 PM 28.8510 -81.1930 40° Northeast 375 432 19,600 353 Climbing FlightAware ADS-B
Tue 01:02:02 PM 28.8940 -81.1480 42° Northeast 375 432 19,600  Level FlightAware ADS-B
Tue 01:02:42 PM 28.9380 -81.1030 42° Northeast 375 432 19,600  Level FlightAware ADS-B
Tue 01:03:22 PM 28.9820 -81.0580 42° Northeast 375 432 19,600  Level FlightAware ADS-B
Tue 01:04:12 PM 29.0370 -81.0010 42° Northeast 375 432 19,600 5,913 Level FlightAware ADS-B
Tue 01:04:31 PM 29.2892 -81.2331 42° Northeast 408 470 26,400 2,261 Climbing Jacksonville Center
Tue 01:09:57 PM 29.9820 -81.3040 42° Northeast 468 539 32,600 1,088 Climbing FlightAware ADS-B
Tue 01:10:57 PM 30.0950 -81.3160 355° North 464 534 33,400 1,086 Climbing FlightAware ADS-B
Tue 01:11:42 PM 30.1960 -81.3260 355° North 462 532 34,500 1,129 Climbing FlightAware ADS-B
Tue 01:12:22 PM 30.2890 -81.3360 355° North 463 533 35,000 400 Climbing FlightAware ADS-B
Tue 01:12:57 PM 30.3680 -81.3440 355° North 464 534 35,000  Level FlightAware ADS-B
Tue 01:13:47 PM 30.4610 -81.3540 355° North 463 533 35,000  Level FlightAware ADS-B
Tue 01:14:22 PM 30.5400 -81.3620 355° North 461 531 35,000  Level FlightAware ADS-B
Tue 01:15:12 PM 30.6430 -81.3730 355° North 460 529 35,000  Level FlightAware ADS-B
Tue 01:15:52 PM 30.5930 -81.3680 175° South 459 528 35,000  Level FlightAware ADS-B
Tue 01:16:27 PM 30.5930 -81.3680 175° South 458 527 35,000  Level FlightAware ADS-B
Tue 01:17:12 PM 30.6760 -81.3760 355° North 458 527 35,000  Level FlightAware ADS-B
Tue 01:17:52 PM 30.7470 -81.3830 355° North 458 527 35,000  Level FlightAware ADS-B
Tue 01:18:42 PM 30.8370 -81.3920 355° North 458 527 35,000  Level FlightAware ADS-B
Tue 01:20:02 PM 31.2250 -81.4310 355° North 456 525 35,000  Level FlightAware ADS-B
Tue 01:20:37 PM 31.2890 -81.4250 North 456 525 35,000  Level FlightAware ADS-B
Tue 01:21:22 PM 31.3830 -81.4010 12° North 455 524 35,000  Level FlightAware ADS-B
Tue 01:22:12 PM 31.4820 -81.3760 12° North 454 522 35,000  Level FlightAware ADS-B
Tue 01:22:52 PM 31.5730 -81.3320 22° Northeast 454 522 35,000  Level FlightAware ADS-B
Tue 01:23:32 PM 31.6430 -81.2880 28° Northeast 454 522 35,000  Level FlightAware ADS-B
Tue 01:24:12 PM 31.7260 -81.2380 27° Northeast 455 524 35,000  Level FlightAware ADS-B
Tue 01:24:52 PM 31.8020 -81.1920 27° Northeast 457 526 35,000  Level FlightAware ADS-B
Tue 01:25:42 PM 31.8900 -81.1370 28° Northeast 458 527 35,000  Level FlightAware ADS-B
Tue 01:26:22 PM 31.9630 -81.0920 28° Northeast 458 527 35,000  Level FlightAware ADS-B
Tue 01:27:02 PM 32.0490 -81.0400 27° Northeast 457 526 35,000  Level FlightAware ADS-B
Tue 01:27:42 PM 32.1240 -80.9940 27° Northeast 457 526 35,000  Level FlightAware ADS-B
Tue 01:28:22 PM 32.1970 -80.9480 28° Northeast 456 525 35,000  Level FlightAware ADS-B
Tue 01:29:12 PM 32.2870 -80.8930 27° Northeast 455 524 35,000  Level FlightAware ADS-B
Tue 01:29:52 PM 32.3650 -80.8520 24° Northeast 454 522 35,000  Level FlightAware ADS-B
Tue 01:31:17 PM 32.5720 -80.8160 North 454 522 35,000  Level FlightAware ADS-B
Tue 01:31:57 PM 32.6570 -80.8020 North 455 524 35,000  Level FlightAware ADS-B
Tue 01:32:42 PM 32.7500 -80.7720 15° North 454 522 35,000  Level FlightAware ADS-B
Tue 01:33:22 PM 32.8240 -80.7400 20° North 455 524 35,000  Level FlightAware ADS-B
Tue 01:34:02 PM 32.9050 -80.6970 24° Northeast 455 524 35,000  Level FlightAware ADS-B
Tue 01:34:47 PM 32.9850 -80.6360 33° Northeast 456 525 35,000  Level FlightAware ADS-B
Tue 01:35:27 PM 33.0520 -80.5830 34° Northeast 456 525 35,000  Level FlightAware ADS-B
Tue 01:36:12 PM 33.1300 -80.5230 33° Northeast 455 524 35,000  Level FlightAware ADS-B
Tue 01:36:52 PM 33.2040 -80.4660 33° Northeast 456 525 35,000  Level FlightAware ADS-B
Tue 01:37:32 PM 33.2730 -80.4120 33° Northeast 457 526 35,000  Level FlightAware ADS-B
Tue 01:38:17 PM 33.3550 -80.3480 33° Northeast 458 527 35,000  Level FlightAware ADS-B
Tue 01:38:57 PM 33.4270 -80.2930 33° Northeast 459 528 35,000  Level FlightAware ADS-B
Tue 01:39:37 PM 33.4960 -80.2390 33° Northeast 460 529 35,000 -64 Level FlightAware ADS-B
Tue 01:40:31 PM 33.5900 -80.1700 33° Northeast 454 522 34,900  Descending Jacksonville Center
Tue 01:41:31 PM 33.6967 -80.0842 34° Northeast 454 522 35,000  Climbing Jacksonville Center
Tue 01:42:31 PM 33.8011 -80.0008 34° Northeast 454 522 34,900  Descending Jacksonville Center
Tue 01:43:31 PM 33.9078 -79.9175 33° Northeast 449 517 35,000  Climbing Jacksonville Center
Tue 01:44:31 PM 34.0122 -79.8361 33° Northeast 455 524 34,900  Descending Jacksonville Center
Tue 01:45:31 PM 34.1186 -79.7472 35° Northeast 449 517 35,000 15 Climbing Jacksonville Center
Tue 01:51:12 PM 34.6810 -79.2260 35° Northeast 455 524 35,000  Level FlightAware ADS-B
Tue 01:52:42 PM 34.8660 -79.1380 21° North 449 517 35,000  Level FlightAware ADS-B
Tue 01:53:22 PM 34.9460 -79.1000 21° North 448 516 35,000  Level FlightAware ADS-B
Tue 01:54:22 PM 35.0600 -79.0340 25° Northeast 459 528 35,000  Level FlightAware ADS-B
Tue 01:55:02 PM 35.1260 -78.9770 35° Northeast 455 524 35,000  Level FlightAware ADS-B
Tue 01:55:47 PM 35.2070 -78.9000 38° Northeast 456 525 35,000  Level FlightAware ADS-B
Tue 01:56:27 PM 35.2720 -78.8390 37° Northeast 457 526 35,000  Level FlightAware ADS-B
Tue 01:57:12 PM 35.3600 -78.7910 24° Northeast 460 529 35,000  Level FlightAware ADS-B
Tue 01:57:52 PM 35.4430 -78.7550 19° North 462 532 35,000  Level FlightAware ADS-B
Tue 01:58:32 PM 35.5240 -78.7200 19° North 462 532 35,000  Level FlightAware ADS-B
Tue 01:59:17 PM 35.6140 -78.6820 19° North 464 534 35,000  Level FlightAware ADS-B
Tue 02:00:02 PM 35.7050 -78.6430 19° North 461 531 35,000  Level FlightAware ADS-B
Tue 02:00:42 PM 35.7860 -78.6070 20° North 460 529 35,000  Level FlightAware ADS-B
Tue 02:01:17 PM 35.8560 -78.5760 20° North 464 534 35,000  Level FlightAware ADS-B
Tue 02:02:02 PM 35.9470 -78.5360 20° North 462 532 35,000  Level FlightAware ADS-B
Tue 02:02:47 PM 36.0410 -78.4950 19° North 462 532 35,000  Level FlightAware ADS-B
Tue 02:03:27 PM 36.1230 -78.4590 20° North 466 536 35,000  Level FlightAware ADS-B
Tue 02:04:12 PM 36.2150 -78.4180 20° North 474 545 35,000  Level FlightAware ADS-B
Tue 02:04:52 PM 36.2990 -78.3810 20° North 475 547 35,000  Level FlightAware ADS-B
Tue 02:05:32 PM 36.3790 -78.3460 19° North 476 548 35,000  Level FlightAware ADS-B
Tue 02:06:17 PM 36.4730 -78.3040 20° North 475 547 35,000  Level FlightAware ADS-B
Tue 02:06:52 PM 36.5470 -78.2720 19° North 476 548 35,000  Level FlightAware ADS-B
Tue 02:07:42 PM 36.6440 -78.2290 20° North 476 548 35,000  Level FlightAware ADS-B
Tue 02:07:47 PM 36.6360 -78.2320 197° South 35,000  Level FlightAware ADS-B
Tue 02:09:32 PM 36.8520 -78.0930 27° Northeast 479 551 35,000  Level FlightAware ADS-B
Tue 02:10:27 PM 36.9600 -78.0170 29° Northeast 478 550 35,000  Level FlightAware ADS-B
Tue 02:11:07 PM 37.0440 -77.9570 30° Northeast 477 549 35,000  Level FlightAware ADS-B
Tue 02:12:02 PM 37.1480 -77.8820 30° Northeast 467 537 35,000  Level FlightAware ADS-B
Tue 02:13:02 PM 37.2650 -77.7990 29° Northeast 470 541 35,000  Level FlightAware ADS-B
Tue 02:13:42 PM 37.3440 -77.7420 30° Northeast 468 539 35,000  Level FlightAware ADS-B
Tue 02:14:27 PM 37.4290 -77.6820 29° Northeast 465 535 35,000  Level FlightAware ADS-B
Tue 02:15:07 PM 37.5030 -77.6280 30° Northeast 464 534 35,000  Level FlightAware ADS-B
Tue 02:15:52 PM 37.5860 -77.5680 30° Northeast 461 531 35,000  Level FlightAware ADS-B
Tue 02:16:32 PM 37.6610 -77.5140 30° Northeast 460 529 35,000  Level FlightAware ADS-B
Tue 02:17:12 PM 37.7350 -77.4600 30° Northeast 460 529 35,000  Level FlightAware ADS-B
Tue 02:17:52 PM 37.8080 -77.4070 30° Northeast 459 528 35,000  Level FlightAware ADS-B
Tue 02:18:37 PM 37.8890 -77.3480 30° Northeast 461 531 35,000  Level FlightAware ADS-B
Tue 02:19:17 PM 37.9620 -77.2950 30° Northeast 462 532 35,000  Level FlightAware ADS-B
Tue 02:20:02 PM 38.0470 -77.2330 30° Northeast 463 533 35,000  Level FlightAware ADS-B
Tue 02:20:33 PM 38.1085 -77.1876 30° Northeast 464 534 35,000  Level FlightAware ADS-B
Tue 02:21:09 PM 38.1757 -77.1383 30° Northeast 466 536 35,000  Level FlightAware ADS-B
Tue 02:21:43 PM 38.2384 -77.0922 30° Northeast 467 537 35,000  Level FlightAware ADS-B
Tue 02:22:22 PM 38.3110 -77.0386 30° Northeast 467 537 35,000  Level FlightAware ADS-B
Tue 02:22:52 PM 38.3650 -76.9990 30° Northeast 467 537 35,000  Level FlightAware ADS-B
Tue 02:23:14 PM 38.4099 -76.9654 30° Northeast 468 539 35,000  Level FlightAware ADS-B
Tue 02:23:46 PM 38.4686 -76.9219 30° Northeast 468 539 35,000  Level FlightAware ADS-B
Tue 02:24:19 PM 38.5308 -76.8754 30° Northeast 468 539 35,000  Level FlightAware ADS-B
Tue 02:24:55 PM 38.5978 -76.8254 30° Northeast 469 540 35,000  Level FlightAware ADS-B
Tue 02:25:27 PM 38.6572 -76.7812 30° Northeast 468 539 35,000  Level FlightAware ADS-B
Tue 02:25:43 PM 38.6884 -76.7573 31° Northeast 469 540 35,000  Level FlightAware ADS-B
Tue 02:26:22 PM 38.7529 -76.6912 39° Northeast 469 540 35,000  Level FlightAware ADS-B
Tue 02:26:56 PM 38.8085 -76.6271 42° Northeast 468 539 35,000  Level FlightAware ADS-B
Tue 02:27:26 PM 38.8567 -76.5713 42° Northeast 467 537 35,000  Level FlightAware ADS-B
Tue 02:28:00 PM 38.9109 -76.5086 42° Northeast 466 536 35,000  Level FlightAware ADS-B
Tue 02:28:31 PM 38.9594 -76.4523 42° Northeast 464 534 35,000 -393 Level FlightAware ADS-B
Tue 02:29:01 PM 39.0075 -76.3964 42° Northeast 462 532 34,600 -1,810 Descending FlightAware ADS-B
Tue 02:29:34 PM 39.0594 -76.3361 42° Northeast 462 532 33,100 -2,952 Descending FlightAware ADS-B
Tue 02:30:04 PM 39.1074 -76.2803 42° Northeast 466 536 31,500 -3,231 Descending FlightAware ADS-B
Tue 02:30:39 PM 39.1637 -76.2146 42° Northeast 471 542 29,600 -3,000 Descending FlightAware ADS-B
Tue 02:31:10 PM 39.2136 -76.1562 42° Northeast 466 536 28,200 -2,459 Descending FlightAware ADS-B
Tue 02:31:40 PM 39.2613 -76.1003 42° Northeast 462 532 27,100 -1,200 Descending FlightAware ADS-B
Tue 02:32:10 PM 39.3086 -76.0446 42° Northeast 457 526 27,000 -98 Descending FlightAware ADS-B
Tue 02:32:41 PM 39.3560 -75.9887 42° Northeast 458 527 27,000  Level FlightAware ADS-B
Tue 02:33:12 PM 39.4046 -75.9316 42° Northeast 462 532 27,000 -97 Level FlightAware ADS-B
Tue 02:33:43 PM 39.4542 -75.8730 42° Northeast 459 528 26,900 -1,258 Descending FlightAware ADS-B
Tue 02:34:14 PM 39.5015 -75.8169 42° Northeast 453 521 25,700 -2,361 Descending FlightAware ADS-B
Tue 02:34:44 PM 39.5480 -75.7619 42° Northeast 446 513 24,500 -2,361 Descending FlightAware ADS-B
Tue 02:35:15 PM 39.5943 -75.7068 43° Northeast 439 505 23,300 -2,226 Descending FlightAware ADS-B
Tue 02:35:46 PM 39.6398 -75.6527 42° Northeast 431 496 22,200 -2,129 Descending FlightAware ADS-B
Tue 02:36:17 PM 39.6845 -75.5994 43° Northeast 424 488 21,100 -2,262 Descending FlightAware ADS-B
Tue 02:36:47 PM 39.7287 -75.5465 43° Northeast 417 480 19,900 -2,262 Descending FlightAware ADS-B
Tue 02:37:18 PM 39.7718 -75.4944 43° Northeast 411 473 18,800 -2,063 Descending FlightAware ADS-B
Tue 02:37:51 PM 39.8170 -75.4398 43° Northeast 403 464 17,700 -2,091 Descending FlightAware ADS-B
Tue 02:38:24 PM 39.8613 -75.3861 43° Northeast 396 456 16,500 -2,156 Descending FlightAware ADS-B
Tue 02:38:55 PM 39.9030 -75.3356 43° Northeast 388 447 15,400 -2,032 Descending FlightAware ADS-B
Tue 02:39:26 PM 39.9421 -75.2882 43° Northeast 379 436 14,400 -2,066 Descending FlightAware ADS-B
Tue 02:39:56 PM 39.9800 -75.2421 43° Northeast 371 427 13,300 -2,095 Descending FlightAware ADS-B
Tue 02:40:29 PM 40.0214 -75.1916 43° Northeast 362 417 12,200 -1,688 Descending FlightAware ADS-B
Tue 02:41:00 PM 40.0582 -75.1467 43° Northeast 349 402 11,500 -968 Descending FlightAware ADS-B
Tue 02:41:31 PM 40.0936 -75.1037 43° Northeast 323 372 11,200 -484 Descending FlightAware ADS-B
Tue 02:42:02 PM 40.1258 -75.0645 43° Northeast 299 344 11,000 -295 Descending FlightAware ADS-B
Tue 02:42:32 PM 40.1556 -75.0278 43° Northeast 291 335 10,900 -800 Descending FlightAware ADS-B
Tue 02:43:02 PM 40.1851 -74.9916 43° Northeast 287 330 10,200 -1,102 Descending FlightAware ADS-B
Tue 02:43:21 PM 40.2027 -74.9698 43° Northeast 277 319 10,000 -882 Descending FlightAware ADS-B
Tue 02:43:36 PM 40.2168 -74.9525 43° Northeast 274 315 9,700 -1,200 Descending FlightAware ADS-B
Tue 02:43:51 PM 40.2308 -74.9352 43° Northeast 271 312 9,400 -1,161 Descending FlightAware ADS-B
Tue 02:44:07 PM 40.2449 -74.9179 43° Northeast 270 311 9,100 -1,440 Descending FlightAware ADS-B
Tue 02:44:16 PM 40.2535 -74.9072 44° Northeast 269 310 8,800 -1,385 Descending FlightAware ADS-B
Tue 02:44:20 PM 40.2565 -74.9033 45° Northeast 269 310 8,800 -750 Level FlightAware ADS-B
Tue 02:44:24 PM 40.2606 -74.8976 47° Northeast 270 311 8,700 -1,714 Descending FlightAware ADS-B
Tue 02:44:41 PM 40.2745 -74.8782 47° Northeast 272 313 8,200 -1,313 Descending FlightAware ADS-B
Tue 02:44:56 PM 40.2876 -74.8597 47° Northeast 272 313 8,000 -387 Descending FlightAware ADS-B
Tue 02:45:12 PM 40.3011 -74.8409 47° Northeast 275 316 8,000  Level FlightAware ADS-B
Tue 02:45:27 PM 40.3144 -74.8220 47° Northeast 279 321 8,000 -581 Level FlightAware ADS-B
Tue 02:45:43 PM 40.3283 -74.8024 47° Northeast 280 322 7,700 -1,161 Descending FlightAware ADS-B
Tue 02:45:58 PM 40.3418 -74.7835 47° Northeast 280 322 7,400 -1,200 Descending FlightAware ADS-B
Tue 02:46:13 PM 40.3553 -74.7645 47° Northeast 280 322 7,100 -1,125 Descending FlightAware ADS-B
Tue 02:46:30 PM 40.3702 -74.7435 47° Northeast 276 318 6,800 -882 Descending FlightAware ADS-B
Tue 02:46:47 PM 40.3843 -74.7235 47° Northeast 274 315 6,600 -909 Descending FlightAware ADS-B
Tue 02:47:03 PM 40.3978 -74.7044 47° Northeast 270 311 6,300 -1,059 Descending FlightAware ADS-B
Tue 02:47:21 PM 40.4136 -74.6827 46° Northeast 267 307 6,000 -750 Descending FlightAware ADS-B
Tue 02:47:27 PM 40.4191 -74.6769 39° Northeast 265 305 6,000  Level FlightAware ADS-B
Tue 02:47:37 PM 40.4301 -74.6688 29° Northeast 263 303 6,000  Level FlightAware ADS-B
Tue 02:47:44 PM 40.4385 -74.6650 19° North 262 302 6,000  Level FlightAware ADS-B
Tue 02:47:52 PM 40.4478 -74.6624 12° North 260 299 6,000  Level FlightAware ADS-B
Tue 02:48:07 PM 40.4658 -74.6578 11° North 262 302 6,000  Level FlightAware ADS-B
Tue 02:48:26 PM 40.4875 -74.6517 12° North 262 302 6,000  Level FlightAware ADS-B
Tue 02:48:45 PM 40.5102 -74.6450 13° North 262 302 6,000  Level FlightAware ADS-B
Tue 02:49:02 PM 40.5301 -74.6398 11° North 262 302 6,000  Level FlightAware ADS-B
Tue 02:49:22 PM 40.5548 -74.6338 10° North 259 298 6,000  Level FlightAware ADS-B
Tue 02:49:57 PM 40.5952 -74.6234 11° North 260 299 6,000  Level FlightAware ADS-B
Tue 02:50:19 PM 40.6212 -74.6165 11° North 263 303 6,000  Level FlightAware ADS-B
Tue 02:50:35 PM 40.6402 -74.6114 12° North 263 303 6,000  Level FlightAware ADS-B
Tue 02:50:51 PM 40.6599 -74.6061 12° North 262 302 6,000  Level FlightAware ADS-B
Tue 02:51:08 PM 40.6799 -74.6007 12° North 263 303 6,000  Level FlightAware ADS-B
Tue 02:51:26 PM 40.7019 -74.5948 11° North 263 303 6,000  Level FlightAware ADS-B
Tue 02:51:41 PM 40.7201 -74.5899 12° North 266 306 6,000  Level FlightAware ADS-B
Tue 02:52:10 PM 40.7552 -74.5800 12° North 265 305 6,000  Level FlightAware ADS-B
Tue 02:52:57 PM 40.8020 -74.5480 27° Northeast 268 308 6,000  Level FlightAware ADS-B
Tue 02:53:27 PM 40.8360 -74.5190 33° Northeast 273 314 6,000 -267 Level FlightAware ADS-B
Tue 02:53:42 PM 40.8480 -74.5010 49° Northeast 272 313 5,800 -933 Descending FlightAware ADS-B
Tue 02:54:12 PM 40.8710 -74.4660 49° Northeast 271 312 5,300 -842 Descending FlightAware ADS-B
Tue 02:54:39 PM 40.8968 -74.4281 48° Northeast 269 310 5,000 -164 Descending FlightAware ADS-B
Tue 02:56:02 PM 40.9370 -74.3100 66° East 269 310 5,000 -65 Level FlightAware ADS-B
Tue 02:56:12 PM 40.9390 -74.2950 80° East 269 310 4,900 -1,313 Descending FlightAware ADS-B
Tue 02:56:34 PM 40.9462 -74.2551 77° East 271 312 4,300 -701 Descending FlightAware ADS-B
Tue 02:57:29 PM 40.9359 -74.1748 100° East 271 312 4,000 -300 Descending FlightAware ADS-B
Tue 02:57:34 PM 40.9338 -74.1688 115° Southeast 218 251 4,000  Level FlightAware ADS-B
Tue 02:57:49 PM 40.9275 -74.1509 115° Southeast 201 231 4,000  Level FlightAware ADS-B
Tue 02:58:01 PM 40.9230 -74.1380 115° Southeast 194 223 4,000 -558 Level FlightAware ADS-B
Tue 02:58:32 PM 40.9130 -74.1080 114° Southeast 187 215 3,600 -1,059 Descending FlightAware ADS-B
Tue 02:58:52 PM 40.9040 -74.0890 122° Southeast 186 214 3,100 -1,241 Descending FlightAware ADS-B
Tue 02:59:01 PM 40.8942 -74.0845 161° South 181 208 3,000 -353 Descending FlightAware ADS-B
Tue 02:59:09 PM 40.8875 -74.0833 172° South 181 208 3,000  Level FlightAware ADS-B
Tue 02:59:31 PM 40.8696 -74.0808 174° South 181 208 3,000  Level FlightAware ADS-B
Tue 02:59:40 PM 40.8627 -74.0796 173° South 176 203 3,000 -316 Level FlightAware ADS-B
Tue 02:59:50 PM 40.8546 -74.0781 172° South 178 205 2,900 -923 Descending FlightAware ADS-B
Tue 02:59:53 PM 40.8517 -74.0773 168° South 179 206 2,800 -1,200 Descending FlightAware ADS-B
Tue 03:00:00 PM 40.8465 -74.0755 165° South 178 205 2,700 -1,000 Descending FlightAware ADS-B
Tue 03:00:05 PM 40.8421 -74.0740 166° South 179 206 2,600 -923 Descending FlightAware ADS-B
Tue 03:00:13 PM 40.8362 -74.0745 184° South 177 204 2,500 -462 Descending FlightAware ADS-B
Tue 03:00:18 PM 40.8325 -74.0761 198° South 167 192 2,500  Level FlightAware ADS-B
Tue 03:00:21 PM 40.8300 -74.0775 203° Southwest 166 191 2,500  Level FlightAware ADS-B
Tue 03:00:37 PM 40.8192 -74.0839 204° Southwest 168 193 2,500 -500 Level FlightAware ADS-B
Tue 03:01:09 PM 40.7960 -74.0988 206° Southwest 174 200 2,100 -750 Descending FlightAware ADS-B
Tue 03:01:17 PM 40.7905 -74.1023 206° Southwest 167 192 2,000 -750 Descending FlightAware ADS-B
Tue 03:01:33 PM 40.7792 -74.1096 206° Southwest 168 193 1,800 -750 Descending FlightAware ADS-B
Tue 03:01:41 PM 40.7732 -74.1133 205° Southwest 168 193 1,700 -1,059 Descending FlightAware ADS-B
Tue 03:01:50 PM 40.7674 -74.1171 206° Southwest 166 191 1,500 -1,000 Descending FlightAware ADS-B
Tue 03:02:05 PM 40.7574 -74.1235 206° Southwest 157 181 1,300 -889 Descending FlightAware ADS-B
Tue 03:02:17 PM 40.7495 -74.1285 206° Southwest 148 170 1,100 -818 Descending FlightAware ADS-B
Tue 03:02:27 PM 40.7438 -74.1322 206° Southwest 143 165 1,000 -375 Descending FlightAware ADS-B
Tue 03:02:33 PM 40.7404 -74.1342 204° Southwest 143 165 1,000 -818 Level FlightAware ADS-B
Tue 03:02:49 PM 40.7307 -74.1405 206° Southwest 143 165 700 -750 Descending FlightAware ADS-B
Tue 03:03:37 PM 40.7021 -74.1586 206° Southwest 143 165 200 -625 Descending FlightAware ADS-B

Login

Don't have an account? Register now (free) for customized features, flight alerts, and more!